createdAt,value
2022-10-18T00:00:52.272Z,15.32
2022-10-18T00:03:40.244Z,15.05
2022-10-18T00:06:09.289Z,18.20
2022-10-18T00:08:38.491Z,16.60
2022-10-18T00:11:06.893Z,13.43
2022-10-18T00:13:34.451Z,15.55
2022-10-18T00:16:03.916Z,14.05
2022-10-18T00:18:31.505Z,15.60
2022-10-18T00:21:13.250Z,13.82
2022-10-18T00:23:40.847Z,15.07
2022-10-18T00:26:08.828Z,15.48
2022-10-18T00:28:36.908Z,15.45
2022-10-18T00:31:17.361Z,14.07
2022-10-18T00:33:46.136Z,14.02
2022-10-18T00:36:14.738Z,13.65
2022-10-18T00:38:42.796Z,14.32
2022-10-18T00:41:13.362Z,14.73
2022-10-18T00:44:28.096Z,14.70
2022-10-18T00:47:06.930Z,15.95
2022-10-18T00:49:47.475Z,15.93
2022-10-18T00:52:36.463Z,15.32
2022-10-18T00:55:06.030Z,14.95
2022-10-18T00:57:33.890Z,14.48
2022-10-18T01:00:01.421Z,16.67
2022-10-18T01:02:29.451Z,14.00
2022-10-18T01:04:57.227Z,12.75
2022-10-18T01:07:56.529Z,14.48
2022-10-18T01:10:41.926Z,13.75
2022-10-18T01:13:12.036Z,18.33
2022-10-18T01:15:59.920Z,16.65
2022-10-18T01:18:59.340Z,17.25
2022-10-18T01:22:03.085Z,17.63
2022-10-18T01:25:19.150Z,15.82
2022-10-18T01:27:56.207Z,17.20
2022-10-18T01:30:23.579Z,14.50
2022-10-18T01:33:00.868Z,14.05
2022-10-18T01:35:37.573Z,16.13
2022-10-18T01:38:07.838Z,15.23
2022-10-18T01:40:36.239Z,17.20
2022-10-18T01:43:04.708Z,16.65
2022-10-18T01:45:33.102Z,16.70
2022-10-18T01:48:02.094Z,15.93
2022-10-18T01:50:34.797Z,14.43
2022-10-18T01:53:02.871Z,17.45
2022-10-18T01:55:56.967Z,16.05
2022-10-18T01:58:46.813Z,14.70
2022-10-18T02:01:42.575Z,16.90
2022-10-18T02:04:28.893Z,16.65
2022-10-18T02:07:04.045Z,16.83
2022-10-18T02:09:43.653Z,14.65
2022-10-18T02:12:15.040Z,15.35
2022-10-18T02:14:45.190Z,13.77
2022-10-18T02:17:13.152Z,12.27
2022-10-18T02:19:50.913Z,12.20
2022-10-18T02:22:19.727Z,13.18
2022-10-18T02:24:53.759Z,13.05
2022-10-18T02:27:24.720Z,16.38
2022-10-18T02:29:52.906Z,13.77
2022-10-18T02:32:41.256Z,19.80
2022-10-18T02:35:16.705Z,13.70
2022-10-18T02:37:47.569Z,13.55
2022-10-18T02:40:15.557Z,13.13
2022-10-18T02:42:53.909Z,14.20
2022-10-18T02:45:23.227Z,11.80
2022-10-18T02:47:50.323Z,11.50
2022-10-18T02:50:18.444Z,12.75
2022-10-18T02:52:45.476Z,12.98
2022-10-18T02:55:12.853Z,13.95
2022-10-18T02:57:39.953Z,13.13
2022-10-18T03:00:08.048Z,12.93
2022-10-18T03:02:35.222Z,12.43
2022-10-18T03:05:02.681Z,13.45
2022-10-18T03:12:55.006Z,10.57
2022-10-18T03:15:24.655Z,12.05
2022-10-18T03:17:53.904Z,11.90
2022-10-18T03:20:24.221Z,12.27
2022-10-18T03:22:51.430Z,11.23
2022-10-18T03:25:20.897Z,12.85
2022-10-18T03:27:47.866Z,13.23
2022-10-18T03:30:19.767Z,11.82
2022-10-18T03:32:49.168Z,13.48
2022-10-18T03:35:16.594Z,13.50
2022-10-18T03:37:44.611Z,11.00
2022-10-18T03:40:13.070Z,11.25
2022-10-18T03:42:40.354Z,10.73
2022-10-18T03:45:09.509Z,10.52
2022-10-18T03:47:37.738Z,11.10
2022-10-18T03:50:05.370Z,11.40
2022-10-18T03:52:32.808Z,12.35
2022-10-18T03:55:00.244Z,12.50
2022-10-18T03:57:27.228Z,13.23
2022-10-18T03:59:54.450Z,12.88
2022-10-18T04:02:21.614Z,14.02
2022-10-18T04:04:50.331Z,15.15
2022-10-18T04:07:17.319Z,16.90
2022-10-18T04:09:44.624Z,16.60
2022-10-18T04:12:11.640Z,18.85
2022-10-18T04:14:38.881Z,19.42
2022-10-18T04:17:05.923Z,21.23
2022-10-18T04:19:33.190Z,22.42
2022-10-18T04:22:00.264Z,19.58
2022-10-18T04:24:27.509Z,18.92
2022-10-18T04:26:54.581Z,14.80
2022-10-18T04:29:26.775Z,16.85
2022-10-18T04:31:53.755Z,19.80
2022-10-18T04:34:21.197Z,17.83
2022-10-18T04:36:50.422Z,23.02
2022-10-18T04:39:23.405Z,23.38
2022-10-18T04:41:50.388Z,21.45
2022-10-18T04:44:17.703Z,20.60
2022-10-18T04:46:44.841Z,23.90
2022-10-18T04:49:12.399Z,21.45
2022-10-18T04:51:42.071Z,20.83
2022-10-18T04:54:12.251Z,22.05
2022-10-18T04:56:42.316Z,15.35
2022-10-18T04:59:09.723Z,16.60
2022-10-18T05:01:38.002Z,14.88
2022-10-18T05:04:06.863Z,15.40
2022-10-18T05:06:38.911Z,15.30
2022-10-18T05:09:06.401Z,12.20
2022-10-18T05:11:33.481Z,12.60
2022-10-18T05:14:00.745Z,15.45
2022-10-18T05:16:29.527Z,16.80
2022-10-18T05:19:02.734Z,22.55
2022-10-18T05:21:30.051Z,22.27
2022-10-18T05:23:57.656Z,25.20
2022-10-18T05:26:26.031Z,26.92
2022-10-18T05:28:53.914Z,25.20
2022-10-18T05:31:21.929Z,23.60
2022-10-18T05:33:49.343Z,21.75
2022-10-18T05:36:16.665Z,22.50
2022-10-18T05:38:45.663Z,26.50
2022-10-18T05:41:13.228Z,21.58
2022-10-18T05:43:41.458Z,21.40
2022-10-18T05:46:13.913Z,25.85
2022-10-18T05:48:49.815Z,25.58
2022-10-18T05:51:17.596Z,23.33
2022-10-18T05:53:45.611Z,30.15
2022-10-18T05:56:14.308Z,27.38
2022-10-18T05:58:43.538Z,28.88
2022-10-18T06:01:10.708Z,28.55
2022-10-18T06:03:38.273Z,27.70
2022-10-18T06:06:08.111Z,29.08
2022-10-18T06:08:36.767Z,27.50
2022-10-18T06:11:08.528Z,34.38
2022-10-18T06:13:48.149Z,32.78
2022-10-18T06:16:17.407Z,33.95
2022-10-18T06:18:56.986Z,33.47
2022-10-18T06:21:25.239Z,36.00
2022-10-18T06:24:07.901Z,29.17
2022-10-18T06:26:51.248Z,27.38
2022-10-18T06:29:33.737Z,23.33
2022-10-18T06:32:02.619Z,23.60
2022-10-18T06:34:29.664Z,21.75
2022-10-18T06:36:58.946Z,23.92
2022-10-18T06:39:28.655Z,25.10
2022-10-18T06:41:58.243Z,24.27
2022-10-18T06:44:25.783Z,25.27
2022-10-18T06:46:53.978Z,23.70
2022-10-18T06:49:23.577Z,23.17
2022-10-18T06:52:10.185Z,24.45
2022-10-18T06:54:38.587Z,25.13
2022-10-18T06:57:07.230Z,25.35
2022-10-18T06:59:35.019Z,27.00
2022-10-18T07:02:03.022Z,24.77
2022-10-18T07:04:33.092Z,22.05
2022-10-18T07:07:00.789Z,24.85
2022-10-18T07:09:28.501Z,25.38
2022-10-18T07:11:56.694Z,26.42
2022-10-18T07:14:37.363Z,22.95
2022-10-18T07:17:24.371Z,25.08
2022-10-18T07:22:40.247Z,23.23
2022-10-18T07:25:11.494Z,22.65
2022-10-18T07:27:42.941Z,21.42
2022-10-18T07:30:11.471Z,23.13
2022-10-18T07:32:38.533Z,21.90
2022-10-18T07:35:22.776Z,24.30
2022-10-18T07:37:53.740Z,19.63
2022-10-18T07:40:21.282Z,19.67
2022-10-18T07:42:48.987Z,18.65
2022-10-18T07:45:16.015Z,21.27
2022-10-18T07:47:43.243Z,18.33
2022-10-18T07:50:10.271Z,17.58
2022-10-18T07:52:38.868Z,18.33
2022-10-18T07:55:08.171Z,19.17
2022-10-18T07:57:36.559Z,18.10
2022-10-18T08:00:09.329Z,17.67
2022-10-18T08:05:18.745Z,13.05
2022-10-18T08:07:50.499Z,5.55
2022-10-18T08:13:18.023Z,6.10
2022-10-18T08:16:08.240Z,4.65
2022-10-18T08:18:43.133Z,4.47
2022-10-18T08:21:13.497Z,5.22
2022-10-18T08:26:24.416Z,4.10
2022-10-18T08:29:10.432Z,4.63
2022-10-18T08:31:39.536Z,3.90
2022-10-18T08:34:06.541Z,3.13
2022-10-18T08:36:34.035Z,3.63
2022-10-18T08:39:03.030Z,4.28
2022-10-18T08:42:13.179Z,3.45
2022-10-18T08:45:00.167Z,3.28
2022-10-18T08:47:42.658Z,3.40
2022-10-18T08:50:23.958Z,3.45
2022-10-18T08:55:36.647Z,3.28
2022-10-18T08:58:16.814Z,3.20
2022-10-18T09:00:53.184Z,3.25
2022-10-18T09:03:38.586Z,3.17
2022-10-18T09:06:31.602Z,2.97
2022-10-18T09:09:30.045Z,3.03
2022-10-18T09:12:29.374Z,3.15
2022-10-18T09:15:16.303Z,2.92
2022-10-18T09:18:08.552Z,2.63
2022-10-18T09:20:55.867Z,3.25
2022-10-18T09:23:58.087Z,3.05
2022-10-18T09:26:26.333Z,3.30
2022-10-18T09:28:59.566Z,2.90
2022-10-18T09:31:33.425Z,2.88
2022-10-18T09:34:12.630Z,2.88
2022-10-18T09:36:40.142Z,2.58
2022-10-18T09:39:18.171Z,2.97
2022-10-18T09:44:45.025Z,2.83
2022-10-18T09:47:48.005Z,2.50
2022-10-18T09:50:37.961Z,3.13
2022-10-18T09:53:35.420Z,2.63
2022-10-18T09:56:09.579Z,2.50
2022-10-18T09:58:46.566Z,2.42
2022-10-18T10:01:18.479Z,2.08
2022-10-18T10:03:45.779Z,2.22
2022-10-18T10:06:12.704Z,2.42
2022-10-18T10:08:47.650Z,2.10
2022-10-18T10:11:45.493Z,2.45
2022-10-18T10:14:14.388Z,1.75
2022-10-18T10:17:11.619Z,2.08
2022-10-18T10:20:12.890Z,1.77
2022-10-18T10:22:41.691Z,2.10
2022-10-18T10:25:26.086Z,1.98
2022-10-18T10:27:53.426Z,1.67
2022-10-18T10:30:29.400Z,1.83
2022-10-18T10:32:58.251Z,2.15
2022-10-18T10:35:52.475Z,1.92
2022-10-18T10:38:25.749Z,1.95
2022-10-18T10:40:54.084Z,1.85
2022-10-18T10:43:37.571Z,1.63
2022-10-18T10:46:36.603Z,1.85
2022-10-18T10:49:39.154Z,1.90
2022-10-18T10:52:08.916Z,1.85
2022-10-18T10:54:48.993Z,1.77
2022-10-18T10:57:27.146Z,1.85
2022-10-18T10:59:57.150Z,1.92
2022-10-18T11:03:28.083Z,1.90
2022-10-18T11:05:58.038Z,2.08
2022-10-18T11:11:23.140Z,1.83
2022-10-18T11:14:25.191Z,1.80
2022-10-18T11:17:12.105Z,2.08
2022-10-18T11:19:51.301Z,2.40
2022-10-18T11:22:23.755Z,2.95
2022-10-18T11:24:51.005Z,2.15
2022-10-18T11:27:29.849Z,1.70
2022-10-18T11:30:20.154Z,1.90
2022-10-18T11:33:15.287Z,1.58
2022-10-18T11:36:14.253Z,1.83
2022-10-18T11:38:49.128Z,1.42
2022-10-18T11:41:34.186Z,1.95
2022-10-18T11:44:04.562Z,1.65
2022-10-18T11:46:31.799Z,1.40
2022-10-18T11:49:13.927Z,1.20
2022-10-18T11:52:07.894Z,1.23
2022-10-18T11:55:11.574Z,1.05
2022-10-18T11:57:42.219Z,1.20
2022-10-18T12:00:18.833Z,1.40
2022-10-18T12:02:52.213Z,1.40
2022-10-18T12:05:24.212Z,1.40
2022-10-18T12:08:23.866Z,1.58
2022-10-18T12:11:06.063Z,1.45
2022-10-18T12:13:43.418Z,1.20
2022-10-18T12:16:50.045Z,1.30
2022-10-18T12:19:27.007Z,1.20
2022-10-18T12:22:13.979Z,1.02
2022-10-18T12:24:44.870Z,1.17
2022-10-18T12:27:19.979Z,1.33
2022-10-18T12:29:53.854Z,1.65
2022-10-18T12:32:27.229Z,1.30
2022-10-18T12:35:16.749Z,1.27
2022-10-18T12:38:12.445Z,1.23
2022-10-18T12:40:53.443Z,1.67
2022-10-18T12:43:25.635Z,1.55
2022-10-18T12:46:01.700Z,1.27
2022-10-18T12:48:34.643Z,1.40
2022-10-18T12:51:15.769Z,1.13
2022-10-18T12:54:15.772Z,1.50
2022-10-18T12:56:52.955Z,1.30
2022-10-18T12:59:20.352Z,1.33
2022-10-18T13:01:50.825Z,1.35
2022-10-18T13:04:27.663Z,1.05
2022-10-18T13:07:01.382Z,1.35
2022-10-18T13:09:36.687Z,1.58
2022-10-18T13:12:13.451Z,1.40
2022-10-18T13:14:48.303Z,1.45
2022-10-18T13:17:47.918Z,1.30
2022-10-18T13:21:15.303Z,1.30
2022-10-18T13:24:17.679Z,1.00
2022-10-18T13:27:04.196Z,1.30
2022-10-18T13:30:10.811Z,1.30
2022-10-18T13:33:17.138Z,1.40
2022-10-18T13:36:00.245Z,1.35
2022-10-18T13:38:56.049Z,1.10
2022-10-18T13:41:49.967Z,1.30
2022-10-18T13:44:38.497Z,1.00
2022-10-18T13:47:37.985Z,1.20
2022-10-18T13:50:21.320Z,1.38
2022-10-18T13:53:26.232Z,1.20
2022-10-18T13:56:14.638Z,1.08
2022-10-18T13:59:14.061Z,1.50
2022-10-18T14:02:15.132Z,1.30
2022-10-18T14:05:40.290Z,2.17
2022-10-18T14:08:15.909Z,1.40
2022-10-18T14:11:06.434Z,1.60
2022-10-18T14:13:52.622Z,1.58
2022-10-18T14:19:43.093Z,1.40
2022-10-18T14:22:24.170Z,1.15
2022-10-18T14:24:58.382Z,1.40
2022-10-18T14:27:33.059Z,1.30
2022-10-18T14:30:17.923Z,1.80
2022-10-18T14:32:51.490Z,1.50
2022-10-18T14:35:35.016Z,1.33
2022-10-18T14:40:46.703Z,1.60
2022-10-18T14:43:17.659Z,2.47
2022-10-18T14:45:48.960Z,1.67
2022-10-18T14:51:01.635Z,1.90
2022-10-18T14:53:39.231Z,2.13
2022-10-18T14:56:07.904Z,1.90
2022-10-18T14:58:38.401Z,1.95
2022-10-18T15:01:06.980Z,1.98
2022-10-18T15:03:35.867Z,2.05
2022-10-18T15:06:05.932Z,2.40
2022-10-18T15:08:37.780Z,2.92
2022-10-18T15:11:10.604Z,3.63
2022-10-18T15:13:57.986Z,2.80
2022-10-18T15:16:30.680Z,1.95
2022-10-18T15:19:16.984Z,2.15
2022-10-18T15:22:32.996Z,2.45
2022-10-18T15:25:05.629Z,2.03
2022-10-18T15:27:36.791Z,2.03
2022-10-18T15:30:11.638Z,1.70
2022-10-18T15:33:16.170Z,2.00
2022-10-18T15:35:44.339Z,2.15
2022-10-18T15:38:27.161Z,2.25
2022-10-18T15:40:54.985Z,2.97
2022-10-18T15:43:28.149Z,2.90
2022-10-18T15:46:05.007Z,2.38
2022-10-18T15:48:41.748Z,2.58
2022-10-18T15:53:49.617Z,2.70
2022-10-18T15:56:30.368Z,2.63
2022-10-18T15:58:59.276Z,2.97
2022-10-18T16:01:35.696Z,3.00
2022-10-18T16:04:10.873Z,2.17
2022-10-18T16:06:38.753Z,2.50
2022-10-18T16:09:07.245Z,2.28
2022-10-18T16:11:34.666Z,3.05
2022-10-18T16:14:01.967Z,2.25
2022-10-18T16:16:29.630Z,2.85
2022-10-18T16:18:57.517Z,3.30
2022-10-18T16:21:45.563Z,3.00
2022-10-18T16:24:12.814Z,3.15
2022-10-18T16:26:40.389Z,3.42
2022-10-18T16:29:17.105Z,2.83
2022-10-18T16:31:57.161Z,3.78
2022-10-18T16:34:26.854Z,3.63
2022-10-18T16:37:02.131Z,3.90
2022-10-18T16:39:32.175Z,3.75
2022-10-18T16:41:59.631Z,4.05
2022-10-18T16:44:26.823Z,4.85
2022-10-18T16:47:11.212Z,4.13
2022-10-18T16:49:39.934Z,4.35
2022-10-18T16:52:07.045Z,4.85
2022-10-18T16:54:40.653Z,4.88
2022-10-18T16:57:08.868Z,5.65
2022-10-18T16:59:37.180Z,5.88
2022-10-18T17:02:10.234Z,5.35
2022-10-18T17:04:37.751Z,5.60
2022-10-18T17:07:05.188Z,6.30
2022-10-18T17:09:35.124Z,6.45
2022-10-18T17:12:02.292Z,6.20
2022-10-18T17:14:33.406Z,5.97
2022-10-18T17:17:00.339Z,7.05
2022-10-18T17:19:30.333Z,6.80
2022-10-18T17:22:02.278Z,5.80
2022-10-18T17:24:30.329Z,6.82
2022-10-18T17:26:58.027Z,5.13
2022-10-18T17:29:25.536Z,6.15
2022-10-18T17:31:52.600Z,5.47
2022-10-18T17:34:22.480Z,6.43
2022-10-18T17:36:57.356Z,6.20
2022-10-18T17:39:27.813Z,5.53
2022-10-18T17:41:55.723Z,4.35
2022-10-18T17:44:24.229Z,3.70
2022-10-18T17:46:51.917Z,3.17
2022-10-18T17:49:19.427Z,4.13
2022-10-18T17:51:47.781Z,6.32
2022-10-18T17:54:15.093Z,5.47
2022-10-18T17:56:43.206Z,5.88
2022-10-18T17:59:11.790Z,3.92
2022-10-18T18:01:42.111Z,4.68
2022-10-18T18:04:22.790Z,6.07
2022-10-18T18:06:54.658Z,5.60
2022-10-18T18:09:50.166Z,12.00
2022-10-18T18:12:17.375Z,5.93
2022-10-18T18:14:47.488Z,7.10
2022-10-18T18:17:15.033Z,6.63
2022-10-18T18:19:42.974Z,6.03
2022-10-18T18:22:36.919Z,6.45
2022-10-18T18:27:50.540Z,6.55
2022-10-18T18:30:22.044Z,6.93
2022-10-18T18:32:49.316Z,7.00
2022-10-18T18:35:19.437Z,6.63
2022-10-18T18:37:54.345Z,7.63
2022-10-18T18:40:23.956Z,8.25
2022-10-18T18:43:07.268Z,7.45
2022-10-18T18:45:39.209Z,6.60
2022-10-18T18:48:08.679Z,7.68
2022-10-18T18:50:37.295Z,5.15
2022-10-18T18:53:05.001Z,7.93
2022-10-18T18:55:34.899Z,7.32
2022-10-18T18:58:04.105Z,6.20
2022-10-18T19:00:31.703Z,6.97
2022-10-18T19:02:59.020Z,6.35
2022-10-18T19:05:28.196Z,7.00
2022-10-18T19:07:55.358Z,6.90
2022-10-18T19:10:22.834Z,6.43
2022-10-18T19:12:51.207Z,6.75
2022-10-18T19:15:21.695Z,6.75
2022-10-18T19:17:51.513Z,6.68
2022-10-18T19:20:19.183Z,5.88
2022-10-18T19:22:46.267Z,4.80
2022-10-18T19:25:16.533Z,4.15
2022-10-18T19:27:43.715Z,6.35
2022-10-18T19:30:13.237Z,6.40
2022-10-18T19:32:40.916Z,7.03
2022-10-18T19:35:10.761Z,6.13
2022-10-18T19:37:39.448Z,3.38
2022-10-18T19:40:08.925Z,6.68
2022-10-18T19:42:40.917Z,6.18
2022-10-18T19:47:38.469Z,4.28
2022-10-18T19:50:06.482Z,5.07
2022-10-18T19:52:33.718Z,5.65
2022-10-18T19:55:01.716Z,5.82
2022-10-18T19:57:29.870Z,5.68
2022-10-18T19:59:58.434Z,5.50
2022-10-18T20:02:27.730Z,5.55
2022-10-18T20:04:56.364Z,5.90
2022-10-18T20:07:23.893Z,5.15
2022-10-18T20:09:51.141Z,5.55
2022-10-18T20:12:18.181Z,6.55
2022-10-18T20:14:45.560Z,6.55
2022-10-18T20:17:13.736Z,6.43
2022-10-18T20:19:41.804Z,7.50
2022-10-18T20:22:08.741Z,7.03
2022-10-18T20:24:36.002Z,6.53
2022-10-18T20:27:03.616Z,7.47
2022-10-18T20:29:31.724Z,7.38
2022-10-18T20:31:58.881Z,6.50
2022-10-18T20:34:28.534Z,6.10
2022-10-18T20:36:55.919Z,6.43
2022-10-18T20:39:23.706Z,5.60
2022-10-18T20:41:50.960Z,5.93
2022-10-18T20:44:20.890Z,5.57
2022-10-18T20:46:47.913Z,5.30
2022-10-18T20:49:16.609Z,6.28
2022-10-18T20:51:44.053Z,7.18
2022-10-18T20:54:14.073Z,7.35
2022-10-18T20:56:41.131Z,7.00
2022-10-18T20:59:10.151Z,5.57
2022-10-18T21:01:39.225Z,6.72
2022-10-18T21:04:09.313Z,5.82
2022-10-18T21:06:40.458Z,6.30
2022-10-18T21:09:11.688Z,5.70
2022-10-18T21:11:41.533Z,5.32
2022-10-18T21:14:16.218Z,5.18
2022-10-18T21:16:43.908Z,5.20
2022-10-18T21:19:23.615Z,4.68
2022-10-18T21:21:53.897Z,3.58
2022-10-18T21:24:23.240Z,4.32
2022-10-18T21:26:50.627Z,3.33
2022-10-18T21:29:21.927Z,4.32
2022-10-18T21:32:00.977Z,4.30
2022-10-18T21:34:30.909Z,4.65
2022-10-18T21:36:57.898Z,4.30
2022-10-18T21:39:26.645Z,4.57
2022-10-18T21:41:54.031Z,4.78
2022-10-18T21:44:21.747Z,5.30
2022-10-18T21:46:48.967Z,4.90
2022-10-18T21:49:16.696Z,4.90
2022-10-18T21:51:43.828Z,4.65
2022-10-18T21:54:16.181Z,4.38
2022-10-18T21:56:43.556Z,5.00
2022-10-18T21:59:14.296Z,5.18
2022-10-18T22:01:43.683Z,4.90
2022-10-18T22:04:20.614Z,4.68
2022-10-18T22:06:47.757Z,4.03
2022-10-18T22:09:15.080Z,5.25
2022-10-18T22:11:45.945Z,7.60
2022-10-18T22:14:13.210Z,7.13
2022-10-18T22:16:40.174Z,5.80
2022-10-18T22:19:08.124Z,5.60
2022-10-18T22:21:35.605Z,5.55
2022-10-18T22:24:08.218Z,5.63
2022-10-18T22:26:38.246Z,4.80
2022-10-18T22:29:08.638Z,4.68
2022-10-18T22:31:38.778Z,4.97
2022-10-18T22:34:08.956Z,4.68
2022-10-18T22:36:36.069Z,5.15
2022-10-18T22:39:05.559Z,4.78
2022-10-18T22:41:34.173Z,5.38
2022-10-18T22:44:03.661Z,5.20
2022-10-18T22:46:35.395Z,4.78
2022-10-18T22:49:02.604Z,4.72
2022-10-18T22:51:29.599Z,5.10
2022-10-18T22:53:57.110Z,4.20
2022-10-18T22:56:24.815Z,4.95
2022-10-18T22:58:52.948Z,4.60
2022-10-18T23:01:22.672Z,4.75
2022-10-18T23:03:58.221Z,4.65
2022-10-18T23:06:29.083Z,4.38
2022-10-18T23:08:58.784Z,4.28
2022-10-18T23:11:27.806Z,5.43
2022-10-18T23:13:55.340Z,4.80
2022-10-18T23:16:22.757Z,5.47
2022-10-18T23:18:52.487Z,5.00
2022-10-18T23:21:20.183Z,4.38
2022-10-18T23:23:47.573Z,4.80
2022-10-18T23:26:16.734Z,4.40
2022-10-18T23:28:46.364Z,6.05
2022-10-18T23:31:19.398Z,4.32
2022-10-18T23:33:54.281Z,5.07
2022-10-18T23:36:22.067Z,4.75
2022-10-18T23:38:49.676Z,4.35
2022-10-18T23:41:17.313Z,4.40
2022-10-18T23:43:46.126Z,4.78
2022-10-18T23:46:15.634Z,4.88
2022-10-18T23:48:43.685Z,4.38
2022-10-18T23:51:10.961Z,5.20
2022-10-18T23:53:38.766Z,4.35
2022-10-18T23:56:09.078Z,4.95
2022-10-18T23:58:37.414Z,4.18
